createdAt,value
2022-12-03T00:01:57.700Z,14.40
2022-12-03T00:04:29.649Z,13.02
2022-12-03T00:07:01.564Z,12.57
2022-12-03T00:09:33.647Z,13.82
2022-12-03T00:12:05.954Z,15.07
2022-12-03T00:14:44.398Z,13.93
2022-12-03T00:17:16.835Z,13.98
2022-12-03T00:19:48.775Z,12.32
2022-12-03T00:22:20.709Z,13.80
2022-12-03T00:24:52.930Z,14.63
2022-12-03T00:27:25.191Z,14.82
2022-12-03T00:29:58.535Z,15.07
2022-12-03T00:32:30.410Z,13.27
2022-12-03T00:35:02.502Z,14.30
2022-12-03T00:37:35.340Z,16.15
2022-12-03T00:40:08.904Z,18.70
2022-12-03T00:42:40.813Z,21.73
2022-12-03T00:45:14.225Z,19.13
2022-12-03T00:47:46.157Z,19.00
2022-12-03T00:50:18.266Z,18.23
2022-12-03T00:52:50.133Z,18.00
2022-12-03T00:55:22.096Z,21.10
2022-12-03T00:57:54.033Z,17.85
2022-12-03T01:00:27.351Z,18.17
2022-12-03T01:02:59.260Z,19.75
2022-12-03T01:05:31.385Z,16.13
2022-12-03T01:08:03.480Z,13.98
2022-12-03T01:10:35.484Z,15.93
2022-12-03T01:13:07.372Z,16.42
2022-12-03T01:15:40.810Z,14.18
2022-12-03T01:18:12.793Z,15.75
2022-12-03T01:20:44.778Z,13.63
2022-12-03T01:23:18.802Z,12.35
2022-12-03T01:25:50.885Z,14.60
2022-12-03T01:28:22.822Z,13.80
2022-12-03T01:31:14.842Z,13.63
2022-12-03T01:33:46.872Z,14.27
2022-12-03T01:36:18.974Z,13.40
2022-12-03T01:38:50.893Z,14.13
2022-12-03T01:41:24.818Z,14.93
2022-12-03T01:43:58.391Z,19.15
2022-12-03T01:46:40.824Z,13.60
2022-12-03T01:49:16.942Z,12.60
2022-12-03T01:51:51.987Z,13.48
2022-12-03T01:54:28.489Z,12.77
2022-12-03T01:57:01.399Z,14.10
2022-12-03T01:59:36.932Z,12.73
2022-12-03T02:02:14.147Z,13.90
2022-12-03T02:04:46.098Z,14.02
2022-12-03T02:07:24.373Z,13.20
2022-12-03T02:09:58.978Z,13.85
2022-12-03T02:12:36.696Z,11.50
2022-12-03T02:15:10.414Z,14.48
2022-12-03T02:17:44.493Z,13.65
2022-12-03T02:20:16.530Z,12.15
2022-12-03T02:22:59.424Z,13.20
2022-12-03T02:25:35.424Z,11.75
2022-12-03T02:28:09.719Z,13.15
2022-12-03T02:30:41.777Z,12.73
2022-12-03T02:33:13.736Z,12.40
2022-12-03T02:35:45.751Z,12.27
2022-12-03T02:38:19.906Z,11.10
2022-12-03T02:40:58.039Z,12.13
2022-12-03T02:43:30.337Z,10.88
2022-12-03T02:46:03.950Z,10.45
2022-12-03T02:48:38.394Z,11.43
2022-12-03T02:51:11.337Z,11.40
2022-12-03T02:53:46.363Z,12.98
2022-12-03T02:56:22.859Z,13.38
2022-12-03T02:58:58.482Z,12.82
2022-12-03T03:01:31.102Z,13.98
2022-12-03T03:04:04.573Z,12.25
2022-12-03T03:06:36.579Z,12.55
2022-12-03T03:09:08.570Z,11.32
2022-12-03T03:11:41.945Z,12.55
2022-12-03T03:14:14.123Z,10.93
2022-12-03T03:16:53.009Z,12.57
2022-12-03T03:19:26.358Z,12.07
2022-12-03T03:21:58.494Z,12.63
2022-12-03T03:24:30.447Z,12.15
2022-12-03T03:27:04.307Z,11.82
2022-12-03T03:29:36.455Z,10.52
2022-12-03T03:32:08.429Z,11.00
2022-12-03T03:34:40.659Z,11.13
2022-12-03T03:37:12.605Z,13.82
2022-12-03T03:39:44.664Z,14.07
2022-12-03T03:42:18.142Z,13.90
2022-12-03T03:44:50.561Z,14.38
2022-12-03T03:47:23.860Z,15.00
2022-12-03T03:49:55.923Z,16.40
2022-12-03T03:52:28.180Z,16.45
2022-12-03T03:55:00.289Z,16.05
2022-12-03T03:57:33.741Z,15.25
2022-12-03T04:00:08.240Z,16.00
2022-12-03T04:02:41.751Z,17.42
2022-12-03T04:05:17.402Z,16.98
2022-12-03T04:07:49.480Z,15.63
2022-12-03T04:10:39.930Z,15.60
2022-12-03T04:13:13.260Z,15.23
2022-12-03T04:15:45.200Z,15.65
2022-12-03T04:18:35.755Z,15.77
2022-12-03T04:21:26.433Z,17.70
2022-12-03T04:23:58.725Z,16.08
2022-12-03T04:26:49.182Z,17.42
2022-12-03T04:29:24.275Z,15.80
2022-12-03T04:32:14.524Z,18.92
2022-12-03T04:35:04.797Z,17.17
2022-12-03T04:37:51.824Z,17.77
2022-12-03T04:40:42.091Z,15.98
2022-12-03T04:43:14.122Z,16.05
2022-12-03T04:45:47.500Z,15.60
2022-12-03T04:48:19.493Z,16.23
2022-12-03T04:50:51.485Z,18.27
2022-12-03T04:53:23.410Z,17.92
2022-12-03T04:55:55.353Z,16.15
2022-12-03T04:58:27.294Z,16.40
2022-12-03T05:01:00.717Z,15.57
2022-12-03T05:03:32.725Z,17.83
2022-12-03T05:06:04.687Z,17.45
2022-12-03T05:08:36.635Z,17.38
2022-12-03T05:11:08.548Z,16.67
2022-12-03T05:13:41.288Z,17.45
2022-12-03T05:16:15.886Z,15.27
2022-12-03T05:18:47.839Z,17.52
2022-12-03T05:21:19.763Z,17.42
2022-12-03T05:23:51.720Z,16.23
2022-12-03T05:26:23.694Z,15.25
2022-12-03T05:28:56.116Z,16.65
2022-12-03T05:31:29.471Z,16.08
2022-12-03T05:34:01.393Z,16.38
2022-12-03T05:36:33.285Z,16.95
2022-12-03T05:39:05.225Z,17.58
2022-12-03T05:42:00.230Z,17.17
2022-12-03T05:44:32.183Z,16.15
2022-12-03T05:47:05.502Z,16.75
2022-12-03T05:49:37.447Z,14.82
2022-12-03T05:52:09.417Z,17.90
2022-12-03T05:54:41.336Z,18.80
2022-12-03T05:57:13.217Z,16.95
2022-12-03T05:59:45.124Z,17.42
2022-12-03T06:02:18.556Z,15.77
2022-12-03T06:04:50.888Z,16.55
2022-12-03T06:07:22.993Z,18.20
2022-12-03T06:09:54.964Z,18.13
2022-12-03T06:12:26.856Z,17.52
2022-12-03T06:14:59.659Z,16.52
2022-12-03T06:17:34.246Z,18.45
2022-12-03T06:20:08.159Z,18.35
2022-12-03T06:22:40.089Z,18.02
2022-12-03T06:25:12.526Z,15.63
2022-12-03T06:27:44.908Z,16.55
2022-12-03T06:30:17.015Z,15.57
2022-12-03T06:32:50.327Z,17.23
2022-12-03T06:35:22.410Z,16.00
2022-12-03T06:37:54.410Z,16.33
2022-12-03T06:40:27.100Z,18.50
2022-12-03T06:42:59.019Z,20.95
2022-12-03T06:45:30.954Z,17.45
2022-12-03T06:48:04.776Z,21.23
2022-12-03T06:50:36.703Z,18.25
2022-12-03T06:53:08.604Z,21.52
2022-12-03T06:55:40.706Z,20.27
2022-12-03T06:58:12.641Z,19.02
2022-12-03T07:00:44.637Z,19.27
2022-12-03T07:03:17.997Z,20.52
2022-12-03T07:05:50.022Z,16.15
2022-12-03T07:08:21.959Z,16.55
2022-12-03T07:10:54.579Z,16.75
2022-12-03T07:13:26.563Z,17.95
2022-12-03T07:15:58.667Z,14.13
2022-12-03T07:18:32.048Z,15.95
2022-12-03T07:21:04.167Z,15.50
2022-12-03T07:23:36.157Z,15.73
2022-12-03T07:26:08.219Z,16.30
2022-12-03T07:28:40.216Z,19.08
2022-12-03T07:31:12.266Z,14.52
2022-12-03T07:33:45.712Z,12.77
2022-12-03T07:36:17.959Z,14.57
2022-12-03T07:38:49.848Z,14.25
2022-12-03T07:41:21.803Z,14.02
2022-12-03T07:43:53.769Z,12.85
2022-12-03T07:46:25.736Z,13.45
2022-12-03T07:48:59.074Z,12.23
2022-12-03T07:51:32.499Z,14.68
2022-12-03T07:54:04.756Z,13.40
2022-12-03T07:56:36.709Z,14.98
2022-12-03T07:59:08.600Z,13.95
2022-12-03T08:01:40.710Z,17.05
2022-12-03T08:04:14.952Z,15.10
2022-12-03T08:06:46.927Z,14.23
2022-12-03T08:09:19.163Z,13.77
2022-12-03T08:11:51.157Z,13.32
2022-12-03T08:14:23.115Z,16.00
2022-12-03T08:16:55.113Z,13.85
2022-12-03T08:19:28.488Z,15.43
2022-12-03T08:22:01.542Z,14.20
2022-12-03T08:24:33.637Z,15.43
2022-12-03T08:27:14.865Z,13.82
2022-12-03T08:29:47.180Z,14.55
2022-12-03T08:32:19.142Z,13.63
2022-12-03T08:34:52.775Z,13.23
2022-12-03T08:37:24.949Z,14.48
2022-12-03T08:39:56.880Z,12.80
2022-12-03T08:42:43.678Z,12.38
2022-12-03T08:45:32.340Z,12.80
2022-12-03T08:48:15.701Z,12.38
2022-12-03T08:50:49.541Z,14.18
2022-12-03T08:53:29.917Z,24.45
2022-12-03T08:56:06.672Z,12.00
2022-12-03T08:58:40.711Z,21.02
2022-12-03T09:01:33.744Z,13.50
2022-12-03T09:04:21.390Z,15.55
2022-12-03T09:06:55.577Z,13.65
2022-12-03T09:09:27.939Z,12.82
2022-12-03T09:12:02.061Z,13.82
2022-12-03T09:14:34.088Z,14.93
2022-12-03T09:17:06.177Z,12.15
2022-12-03T09:19:44.340Z,12.25
2022-12-03T09:22:19.244Z,14.88
2022-12-03T09:24:51.388Z,13.23
2022-12-03T09:27:23.467Z,13.90
2022-12-03T09:29:55.434Z,15.32
2022-12-03T09:32:27.469Z,13.27
2022-12-03T09:34:59.591Z,14.55
2022-12-03T09:37:32.981Z,18.60
2022-12-03T09:40:06.288Z,17.90
2022-12-03T09:42:38.551Z,17.48
2022-12-03T09:45:14.349Z,16.85
2022-12-03T09:47:49.499Z,16.35
2022-12-03T09:50:24.336Z,15.32
2022-12-03T09:53:03.816Z,16.60
2022-12-03T09:55:35.926Z,14.52
2022-12-03T09:58:12.273Z,15.85
2022-12-03T10:00:47.915Z,15.07
2022-12-03T10:03:28.269Z,15.75
2022-12-03T10:06:01.815Z,14.77
2022-12-03T10:08:35.140Z,15.98
2022-12-03T10:11:07.139Z,22.00
2022-12-03T10:13:40.115Z,14.82
2022-12-03T10:16:15.505Z,14.50
2022-12-03T10:18:50.102Z,13.48
2022-12-03T10:21:24.638Z,14.40
2022-12-03T10:24:20.059Z,14.20
2022-12-03T10:26:54.083Z,15.43
2022-12-03T10:29:33.721Z,16.40
2022-12-03T10:32:08.928Z,21.45
2022-12-03T10:34:42.063Z,18.73
2022-12-03T10:37:16.553Z,15.82
2022-12-03T10:39:58.932Z,14.85
2022-12-03T10:42:33.027Z,15.13
2022-12-03T10:45:19.337Z,13.60
2022-12-03T10:48:07.296Z,16.13
2022-12-03T10:50:47.788Z,16.70
2022-12-03T10:53:21.737Z,17.33
2022-12-03T10:55:59.717Z,17.17
2022-12-03T10:58:35.552Z,15.13
2022-12-03T11:01:15.571Z,16.00
2022-12-03T11:06:21.631Z,17.25
2022-12-03T11:08:57.769Z,16.95
2022-12-03T11:11:33.792Z,15.60
2022-12-03T11:14:05.953Z,15.82
2022-12-03T11:17:08.107Z,16.48
2022-12-03T11:19:48.648Z,19.23
2022-12-03T11:22:33.788Z,16.40
2022-12-03T11:25:48.100Z,18.38
2022-12-03T11:28:53.086Z,17.83
2022-12-03T11:31:39.177Z,17.30
2022-12-03T11:34:46.375Z,15.80
2022-12-03T11:37:24.943Z,15.82
2022-12-03T11:40:25.193Z,27.20
2022-12-03T11:42:57.157Z,21.15
2022-12-03T11:45:34.369Z,16.35
2022-12-03T11:48:15.088Z,17.23
2022-12-03T11:50:51.078Z,16.98
2022-12-03T11:53:25.189Z,18.58
2022-12-03T11:56:12.982Z,15.80
2022-12-03T11:58:46.583Z,17.90
2022-12-03T12:01:38.305Z,18.35
2022-12-03T12:04:30.266Z,17.98
2022-12-03T12:07:02.375Z,19.98
2022-12-03T12:09:51.538Z,16.90
2022-12-03T12:12:30.585Z,18.38
2022-12-03T12:15:43.416Z,26.85
2022-12-03T12:18:36.762Z,17.55
2022-12-03T12:21:41.913Z,17.35
2022-12-03T12:24:43.269Z,17.65
2022-12-03T12:27:16.885Z,14.65
2022-12-03T12:29:54.381Z,15.23
2022-12-03T12:32:28.673Z,17.80
2022-12-03T12:35:13.476Z,15.90
2022-12-03T12:37:58.091Z,14.98
2022-12-03T12:40:32.881Z,15.32
2022-12-03T12:43:20.359Z,14.30
2022-12-03T12:46:09.233Z,16.75
2022-12-03T12:48:51.873Z,14.32
2022-12-03T12:51:27.677Z,15.85
2022-12-03T12:53:59.649Z,18.80
2022-12-03T12:56:32.716Z,17.33
2022-12-03T12:59:12.663Z,18.30
2022-12-03T13:01:46.388Z,25.05
2022-12-03T13:04:19.759Z,18.55
2022-12-03T13:06:54.052Z,19.20
2022-12-03T13:09:27.141Z,18.15
2022-12-03T13:12:01.256Z,19.77
2022-12-03T13:14:36.669Z,18.40
2022-12-03T13:17:15.269Z,23.02
2022-12-03T13:19:52.111Z,18.70
2022-12-03T13:22:29.602Z,16.98
2022-12-03T13:25:32.794Z,25.00
2022-12-03T13:28:13.507Z,12.13
2022-12-03T13:30:45.562Z,20.35
2022-12-03T13:33:26.612Z,15.60
2022-12-03T13:35:58.621Z,19.30
2022-12-03T13:38:31.903Z,19.88
2022-12-03T13:41:04.010Z,19.10
2022-12-03T13:43:44.337Z,17.58
2022-12-03T13:46:16.764Z,18.65
2022-12-03T13:48:50.076Z,16.27
2022-12-03T13:51:26.273Z,18.38
2022-12-03T13:54:00.239Z,15.10
2022-12-03T13:56:32.945Z,17.75
2022-12-03T13:59:04.930Z,15.63
2022-12-03T14:01:36.886Z,17.38
2022-12-03T14:04:08.983Z,21.38
2022-12-03T14:06:40.950Z,20.92
2022-12-03T14:09:14.669Z,19.85
2022-12-03T14:12:05.140Z,16.55
2022-12-03T14:14:37.041Z,14.77
2022-12-03T14:17:10.304Z,23.48
2022-12-03T14:19:42.249Z,18.90
2022-12-03T14:22:14.740Z,18.67
2022-12-03T14:24:48.016Z,27.73
2022-12-03T14:27:20.907Z,22.67
2022-12-03T14:29:53.237Z,18.88
2022-12-03T14:32:25.704Z,18.58
2022-12-03T14:34:57.665Z,17.90
2022-12-03T14:37:29.654Z,19.63
2022-12-03T14:40:03.910Z,17.52
2022-12-03T14:42:36.561Z,20.05
2022-12-03T14:45:09.767Z,17.42
2022-12-03T14:47:41.676Z,15.75
2022-12-03T14:50:14.490Z,17.48
2022-12-03T14:52:46.502Z,18.35
2022-12-03T14:55:19.865Z,17.65
2022-12-03T14:57:51.808Z,16.58
2022-12-03T15:00:23.880Z,17.48
2022-12-03T15:02:55.820Z,19.73
2022-12-03T15:05:28.988Z,18.38
2022-12-03T15:08:01.203Z,16.83
2022-12-03T15:10:34.514Z,25.90
2022-12-03T15:13:06.455Z,16.55
2022-12-03T15:15:38.376Z,17.02
2022-12-03T15:18:10.294Z,17.98
2022-12-03T15:20:42.266Z,17.52
2022-12-03T15:23:14.820Z,17.33
2022-12-03T15:25:48.299Z,22.92
2022-12-03T15:28:23.158Z,22.58
2022-12-03T15:30:55.189Z,23.60
2022-12-03T15:33:27.653Z,20.13
2022-12-03T15:35:59.592Z,17.00
2022-12-03T15:38:31.550Z,19.30
2022-12-03T15:41:21.344Z,20.02
2022-12-03T15:43:53.492Z,20.80
2022-12-03T15:46:27.657Z,17.17
2022-12-03T15:48:59.825Z,16.77
2022-12-03T15:51:31.811Z,15.57
2022-12-03T15:54:04.046Z,17.17
2022-12-03T15:56:37.671Z,17.92
2022-12-03T15:59:09.843Z,17.15
2022-12-03T16:01:41.792Z,15.73
2022-12-03T16:04:13.780Z,17.70
2022-12-03T16:06:45.677Z,18.77
2022-12-03T16:09:19.088Z,17.65
2022-12-03T16:11:55.713Z,17.58
2022-12-03T16:14:27.679Z,19.73
2022-12-03T16:17:00.245Z,17.98
2022-12-03T16:19:32.157Z,16.48
2022-12-03T16:22:06.270Z,16.13
2022-12-03T16:24:38.274Z,17.95
2022-12-03T16:27:11.563Z,16.10
2022-12-03T16:29:43.489Z,17.13
2022-12-03T16:32:15.382Z,19.00
2022-12-03T16:34:47.307Z,16.52
2022-12-03T16:37:19.384Z,17.23
2022-12-03T16:39:52.894Z,15.18
2022-12-03T16:42:27.325Z,17.08
2022-12-03T16:45:22.867Z,16.83
2022-12-03T16:47:54.753Z,16.33
2022-12-03T16:50:29.778Z,17.45
2022-12-03T16:53:02.272Z,18.60
2022-12-03T16:55:34.184Z,17.45
2022-12-03T16:58:07.517Z,17.25
2022-12-03T17:00:39.441Z,17.00
2022-12-03T17:03:11.412Z,18.10
2022-12-03T17:05:43.455Z,17.88
2022-12-03T17:08:16.053Z,17.50
2022-12-03T17:10:48.373Z,18.60
2022-12-03T17:13:23.237Z,17.33
2022-12-03T17:15:55.220Z,19.17
2022-12-03T17:18:27.141Z,18.63
2022-12-03T17:20:59.120Z,18.27
2022-12-03T17:23:31.234Z,19.92
2022-12-03T17:26:03.190Z,21.20
2022-12-03T17:28:36.522Z,19.02
2022-12-03T17:31:08.557Z,21.80
2022-12-03T17:33:40.742Z,21.48
2022-12-03T17:36:12.650Z,20.85
2022-12-03T17:38:44.535Z,21.63
2022-12-03T17:41:16.568Z,21.88
2022-12-03T17:43:49.917Z,20.30
2022-12-03T17:46:22.001Z,19.48
2022-12-03T17:48:53.982Z,20.30
2022-12-03T17:51:25.949Z,22.08
2022-12-03T17:53:57.919Z,22.83
2022-12-03T17:56:29.904Z,21.58
2022-12-03T17:59:03.260Z,23.70
2022-12-03T18:01:35.292Z,23.02
2022-12-03T18:04:07.698Z,22.48
2022-12-03T18:06:39.768Z,20.67
2022-12-03T18:09:11.724Z,24.42
2022-12-03T18:11:43.814Z,23.23
2022-12-03T18:14:17.151Z,25.85
2022-12-03T18:16:49.170Z,23.13
2022-12-03T18:19:21.148Z,22.70
2022-12-03T18:21:54.059Z,22.77
2022-12-03T18:24:26.171Z,24.45
2022-12-03T18:26:58.168Z,24.20
2022-12-03T18:29:31.520Z,24.60
2022-12-03T18:32:03.772Z,25.73
2022-12-03T18:34:35.761Z,23.70
2022-12-03T18:37:10.347Z,22.60
2022-12-03T18:39:45.105Z,24.50
2022-12-03T18:42:18.606Z,22.58
2022-12-03T18:44:54.366Z,24.30
2022-12-03T18:47:28.674Z,26.23
2022-12-03T18:50:00.820Z,23.30
2022-12-03T18:52:33.005Z,24.02
2022-12-03T18:55:06.165Z,22.98
2022-12-03T18:57:38.107Z,19.85
2022-12-03T19:00:13.827Z,22.25
2022-12-03T19:03:03.449Z,22.45
2022-12-03T19:05:36.394Z,22.38
2022-12-03T19:08:14.366Z,24.52
2022-12-03T19:10:55.761Z,20.77
2022-12-03T19:13:28.133Z,20.70
2022-12-03T19:16:03.684Z,21.40
2022-12-03T19:18:36.424Z,21.35
2022-12-03T19:21:09.525Z,22.05
2022-12-03T19:23:47.277Z,23.75
2022-12-03T19:26:30.984Z,22.05
2022-12-03T19:29:03.483Z,19.33
2022-12-03T19:31:36.922Z,18.65
2022-12-03T19:34:08.941Z,18.83
2022-12-03T19:36:40.899Z,20.55
2022-12-03T19:39:13.039Z,16.77
2022-12-03T19:41:45.163Z,15.38
2022-12-03T19:44:19.118Z,16.52
2022-12-03T19:46:52.947Z,15.57
2022-12-03T19:49:24.944Z,16.75
2022-12-03T19:51:56.891Z,15.43
2022-12-03T19:54:28.854Z,17.65
2022-12-03T19:57:00.847Z,18.05
2022-12-03T19:59:32.809Z,16.58
2022-12-03T20:02:06.606Z,19.55
2022-12-03T20:04:38.645Z,18.02
2022-12-03T20:07:10.669Z,21.63
2022-12-03T20:09:42.631Z,18.83
2022-12-03T20:12:14.598Z,19.67
2022-12-03T20:14:46.625Z,21.30
2022-12-03T20:17:19.994Z,22.55
2022-12-03T20:19:52.212Z,22.80
2022-12-03T20:22:24.278Z,21.88
2022-12-03T20:24:56.235Z,22.13
2022-12-03T20:27:28.202Z,19.20
2022-12-03T20:30:00.292Z,19.05
2022-12-03T20:32:35.073Z,22.13
2022-12-03T20:35:07.655Z,22.42
2022-12-03T20:37:39.587Z,20.65
2022-12-03T20:40:12.135Z,19.83
2022-12-03T20:42:47.094Z,18.83
2022-12-03T20:45:19.171Z,17.83
2022-12-03T20:47:52.476Z,19.13
2022-12-03T20:50:24.510Z,21.63
2022-12-03T20:53:22.774Z,19.65
2022-12-03T20:55:55.412Z,18.98
2022-12-03T20:58:27.899Z,21.63
2022-12-03T21:01:12.538Z,20.27
2022-12-03T21:03:52.077Z,23.00
2022-12-03T21:06:26.042Z,20.40
2022-12-03T21:08:59.095Z,23.45
2022-12-03T21:11:33.916Z,21.95
2022-12-03T21:14:05.904Z,18.83
2022-12-03T21:17:07.168Z,18.55
2022-12-03T21:19:32.861Z,21.27
2022-12-03T21:22:05.051Z,18.15
2022-12-03T21:24:37.007Z,17.27
2022-12-03T21:27:08.953Z,18.90
2022-12-03T21:29:40.884Z,19.42
2022-12-03T21:32:12.843Z,17.98
2022-12-03T21:34:46.169Z,19.52
2022-12-03T21:37:18.201Z,16.60
2022-12-03T21:39:50.113Z,17.98
2022-12-03T21:42:35.475Z,17.88
2022-12-03T21:45:09.650Z,17.27
2022-12-03T21:47:41.811Z,17.63
2022-12-03T21:50:15.212Z,18.98
2022-12-03T21:52:47.234Z,17.80
2022-12-03T21:55:19.194Z,15.48
2022-12-03T21:57:51.237Z,17.65
2022-12-03T22:00:23.391Z,19.65
2022-12-03T22:02:55.435Z,19.58
2022-12-03T22:05:28.823Z,19.20
2022-12-03T22:08:00.894Z,27.67
2022-12-03T22:10:33.054Z,23.13
2022-12-03T22:13:05.106Z,24.77
2022-12-03T22:15:38.983Z,24.13
2022-12-03T22:18:14.198Z,19.38
2022-12-03T22:20:47.527Z,21.00
2022-12-03T22:23:19.523Z,18.83
2022-12-03T22:25:58.097Z,21.27
2022-12-03T22:28:30.136Z,18.45
2022-12-03T22:31:05.738Z,17.98
2022-12-03T22:33:41.001Z,16.52
2022-12-03T22:36:20.586Z,17.88
2022-12-03T22:38:53.343Z,17.88
2022-12-03T22:41:25.328Z,19.30
2022-12-03T22:43:57.533Z,17.90
2022-12-03T22:46:29.581Z,18.20
2022-12-03T22:49:06.795Z,17.60
2022-12-03T22:51:40.979Z,17.60
2022-12-03T22:54:13.306Z,17.63
2022-12-03T22:56:45.220Z,14.80
2022-12-03T22:59:17.202Z,16.55
2022-12-03T23:01:49.228Z,17.70
2022-12-03T23:04:21.312Z,15.80
2022-12-03T23:06:54.684Z,17.33
2022-12-03T23:09:26.883Z,16.60
2022-12-03T23:11:58.908Z,15.23
2022-12-03T23:14:30.939Z,14.90
2022-12-03T23:17:02.886Z,15.20
2022-12-03T23:19:35.194Z,14.45
2022-12-03T23:22:08.543Z,13.43
2022-12-03T23:24:40.554Z,16.48
2022-12-03T23:27:12.494Z,16.23
2022-12-03T23:29:44.458Z,17.00
2022-12-03T23:32:16.400Z,15.88
2022-12-03T23:34:48.610Z,16.20
2022-12-03T23:37:22.879Z,16.60
2022-12-03T23:39:55.109Z,14.10
2022-12-03T23:42:27.159Z,15.95
2022-12-03T23:44:59.136Z,15.35
2022-12-03T23:47:31.382Z,15.88
2022-12-03T23:50:04.063Z,16.70
2022-12-03T23:52:37.421Z,13.57
2022-12-03T23:55:10.534Z,15.68
2022-12-03T23:57:42.499Z,15.10
